createdAt,value
2019-06-20T00:00:33.351Z,20.17
2019-06-20T00:01:13.840Z,20.13
2019-06-20T00:01:54.325Z,20.17
2019-06-20T00:02:34.792Z,20.13
2019-06-20T00:03:15.281Z,20.13
2019-06-20T00:03:55.785Z,20.05
2019-06-20T00:04:36.223Z,20.12
2019-06-20T00:05:16.697Z,20.08
2019-06-20T00:05:57.175Z,20.05
2019-06-20T00:06:37.648Z,20.07
2019-06-20T00:07:18.121Z,20.07
2019-06-20T00:07:58.603Z,20.02
2019-06-20T00:08:39.129Z,20.04
2019-06-20T00:09:19.533Z,20.07
2019-06-20T00:10:00.050Z,20.04
2019-06-20T00:10:40.504Z,19.95
2019-06-20T00:11:20.985Z,20
2019-06-20T00:12:01.466Z,20.05
2019-06-20T00:12:41.950Z,19.94
2019-06-20T00:13:22.435Z,19.98
2019-06-20T00:14:02.916Z,20.01
2019-06-20T00:14:43.416Z,19.98
2019-06-20T00:15:23.908Z,20.05
2019-06-20T00:16:04.426Z,19.94
2019-06-20T00:16:44.920Z,19.97
2019-06-20T00:17:25.391Z,19.94
2019-06-20T00:18:05.862Z,19.89
2019-06-20T00:18:46.355Z,19.92
2019-06-20T00:19:26.812Z,19.87
2019-06-20T00:20:07.280Z,19.86
2019-06-20T00:20:47.769Z,19.86
2019-06-20T00:21:28.281Z,19.95
2019-06-20T00:22:08.752Z,19.87
2019-06-20T00:22:49.233Z,20.01
2019-06-20T00:23:29.709Z,20.01
2019-06-20T00:24:10.302Z,19.97
2019-06-20T00:24:50.801Z,20.05
2019-06-20T00:25:31.273Z,20.07
2019-06-20T00:26:11.751Z,19.95
2019-06-20T00:26:52.243Z,20.02
2019-06-20T00:27:32.749Z,20.04
2019-06-20T00:28:13.220Z,20.01
2019-06-20T00:28:53.724Z,20.07
2019-06-20T00:30:14.685Z,20.02
2019-06-20T00:30:55.170Z,20.08
2019-06-20T00:31:35.648Z,19.98
2019-06-20T00:32:16.134Z,20.02
2019-06-20T00:32:56.598Z,20.01
2019-06-20T00:33:37.073Z,20.05
2019-06-20T00:34:17.567Z,20.02
2019-06-20T00:34:58.056Z,20.05
2019-06-20T00:35:38.516Z,20.08
2019-06-20T00:36:19.033Z,20.07
2019-06-20T00:36:59.482Z,20.12
2019-06-20T00:37:39.966Z,20.08
2019-06-20T00:38:20.450Z,20.01
2019-06-20T00:39:00.937Z,20.08
2019-06-20T00:39:41.412Z,20.05
2019-06-20T00:40:21.903Z,20.05
2019-06-20T00:41:02.403Z,20.08
2019-06-20T00:41:42.910Z,20.08
2019-06-20T00:42:23.371Z,20.07
2019-06-20T00:43:16.686Z,20.12
2019-06-20T00:43:44.339Z,20.13
2019-06-20T00:44:24.836Z,20.13
2019-06-20T00:45:05.304Z,20.23
2019-06-20T00:45:45.808Z,20.26
2019-06-20T00:46:26.267Z,20.3
2019-06-20T00:47:06.713Z,20.33
2019-06-20T00:47:47.211Z,20.37
2019-06-20T00:48:27.690Z,20.41
2019-06-20T00:49:08.153Z,20.37
2019-06-20T00:49:48.617Z,20.41
2019-06-20T00:50:29.118Z,20.48
2019-06-20T00:51:09.563Z,20.53
2019-06-20T00:51:50.036Z,20.46
2019-06-20T00:52:30.504Z,20.56
2019-06-20T00:53:10.948Z,20.53
2019-06-20T00:53:51.472Z,20.42
2019-06-20T00:54:31.910Z,20.5
2019-06-20T00:55:12.398Z,20.54
2019-06-20T00:55:52.918Z,20.42
2019-06-20T00:56:36.431Z,20.54
2019-06-20T00:57:17.906Z,20.5
2019-06-20T00:58:02.440Z,20.48
2019-06-20T00:58:42.846Z,20.5
2019-06-20T00:59:24.127Z,20.44
2019-06-20T01:00:04.649Z,20.48
2019-06-20T01:00:45.118Z,20.44
2019-06-20T01:01:25.551Z,20.53
2019-06-20T01:02:07.951Z,20.48
2019-06-20T01:02:48.538Z,20.5
2019-06-20T01:03:29.206Z,20.48
2019-06-20T01:04:09.660Z,20.42
2019-06-20T01:04:50.521Z,20.41
2019-06-20T01:05:31.366Z,20.42
2019-06-20T01:06:57.371Z,20.51
2019-06-20T01:07:38.024Z,20.48
2019-06-20T01:08:22.721Z,20.42
2019-06-20T01:09:09.396Z,20.41
2019-06-20T01:09:49.853Z,20.37
2019-06-20T01:10:31.135Z,20.33
2019-06-20T01:11:11.862Z,20.33
2019-06-20T01:11:52.298Z,20.33
2019-06-20T01:12:34.480Z,20.31
2019-06-20T01:13:15.127Z,20.33
2019-06-20T01:13:58.951Z,20.31
2019-06-20T01:14:43.286Z,20.3
2019-06-20T01:15:23.910Z,20.27
2019-06-20T01:16:04.367Z,20.31
2019-06-20T01:17:25.609Z,20.34
2019-06-20T01:18:08.471Z,20.34
2019-06-20T01:18:49.832Z,20.34
2019-06-20T01:19:30.329Z,20.41
2019-06-20T01:20:10.778Z,20.41
2019-06-20T01:20:51.278Z,20.42
2019-06-20T01:21:31.763Z,20.41
2019-06-20T01:22:12.320Z,20.41
2019-06-20T01:22:52.820Z,20.34
2019-06-20T01:23:33.277Z,20.34
2019-06-20T01:24:13.779Z,20.3
2019-06-20T01:24:54.282Z,20.34
2019-06-20T01:25:34.783Z,20.33
2019-06-20T01:26:15.230Z,20.41
2019-06-20T01:26:55.688Z,20.4
2019-06-20T01:27:37.106Z,20.38
2019-06-20T01:28:17.604Z,20.31
2019-06-20T01:28:58.050Z,20.37
2019-06-20T01:29:41.008Z,20.4
2019-06-20T01:30:23.103Z,20.34
2019-06-20T01:31:03.643Z,20.34
2019-06-20T01:31:44.032Z,20.34
2019-06-20T01:33:05.099Z,20.42
2019-06-20T01:33:45.515Z,20.27
2019-06-20T01:34:26.015Z,20.33
2019-06-20T01:35:06.528Z,20.33
2019-06-20T01:35:46.986Z,20.27
2019-06-20T01:36:29.391Z,20.27
2019-06-20T01:37:11.803Z,20.25
2019-06-20T01:37:53.891Z,20.16
2019-06-20T01:38:35.647Z,20.13
2019-06-20T01:39:16.825Z,20.1
2019-06-20T01:40:00.373Z,20.15
2019-06-20T01:40:41.059Z,20.08
2019-06-20T01:41:24.905Z,20.16
2019-06-20T01:42:06.237Z,20.07
2019-06-20T01:42:46.756Z,20.1
2019-06-20T01:43:27.282Z,20.07
2019-06-20T01:44:07.680Z,20.08
2019-06-20T01:44:49.176Z,20.05
2019-06-20T01:45:31.125Z,20.02
2019-06-20T01:49:18.795Z,20.04
2019-06-20T01:50:58.336Z,19.83
2019-06-20T01:54:15.770Z,19.9
2019-06-20T01:56:03.578Z,19.86
2019-06-20T01:59:31.374Z,19.85
2019-06-20T02:00:20.014Z,19.72
2019-06-20T02:00:58.233Z,19.87
2019-06-20T02:01:43.014Z,19.78
2019-06-20T02:02:23.525Z,19.8
2019-06-20T02:03:04.010Z,19.9
2019-06-20T02:03:44.434Z,19.89
2019-06-20T02:04:24.895Z,19.87
2019-06-20T02:05:05.394Z,19.87
2019-06-20T02:05:47.717Z,19.89
2019-06-20T02:06:28.239Z,19.97
2019-06-20T02:07:09.034Z,19.92
2019-06-20T02:07:52.185Z,19.89
2019-06-20T02:08:33.641Z,19.87
2019-06-20T02:09:14.752Z,19.95
2019-06-20T02:09:55.481Z,19.94
2019-06-20T02:10:35.973Z,19.95
2019-06-20T02:11:16.471Z,20.05
2019-06-20T02:11:59.721Z,19.97
2019-06-20T02:12:40.146Z,19.97
2019-06-20T02:13:21.574Z,19.92
2019-06-20T02:14:07.428Z,19.9
2019-06-20T02:14:45.256Z,19.9
2019-06-20T02:15:25.699Z,19.8
2019-06-20T02:16:06.217Z,19.79
2019-06-20T02:16:47.580Z,19.75
2019-06-20T02:17:28.085Z,19.8
2019-06-20T02:18:08.939Z,19.8
2019-06-20T02:18:49.479Z,19.78
2019-06-20T02:19:29.884Z,19.8
2019-06-20T02:20:10.548Z,19.82
2019-06-20T02:20:51.074Z,19.76
2019-06-20T02:21:35.040Z,19.8
2019-06-20T02:22:15.577Z,19.79
2019-06-20T02:22:56.072Z,19.8
2019-06-20T02:23:37.534Z,19.76
2019-06-20T02:24:18.481Z,19.75
2019-06-20T02:24:58.938Z,19.78
2019-06-20T02:25:39.412Z,19.75
2019-06-20T02:26:20.427Z,19.75
2019-06-20T02:27:00.867Z,19.83
2019-06-20T02:27:41.322Z,19.78
2019-06-20T02:28:22.474Z,19.76
2019-06-20T02:29:08.310Z,19.78
2019-06-20T02:29:48.720Z,19.8
2019-06-20T02:30:29.263Z,19.78
2019-06-20T02:31:50.322Z,19.71
2019-06-20T02:32:32.687Z,19.82
2019-06-20T02:33:14.384Z,19.83
2019-06-20T02:33:53.597Z,19.92
2019-06-20T02:34:34.098Z,19.79
2019-06-20T02:35:17.651Z,19.75
2019-06-20T02:35:58.497Z,19.79
2019-06-20T02:36:38.905Z,19.89
2019-06-20T02:37:19.350Z,19.94
2019-06-20T02:37:59.841Z,19.89
2019-06-20T02:40:53.182Z,20.02
2019-06-20T02:41:33.951Z,19.94
2019-06-20T02:42:15.544Z,19.94
2019-06-20T02:42:56.992Z,20.12
2019-06-20T02:43:37.429Z,20.01
2019-06-20T02:44:29.667Z,20.05
2019-06-20T02:44:58.948Z,20.07
2019-06-20T02:45:39.454Z,20.07
2019-06-20T02:46:19.942Z,20.1
2019-06-20T02:47:00.379Z,20.05
2019-06-20T02:47:40.902Z,20.07
2019-06-20T02:48:21.330Z,20.02
2019-06-20T02:49:02.215Z,20.12
2019-06-20T02:49:42.493Z,20.1
2019-06-20T02:50:22.955Z,20.08
2019-06-20T02:51:03.369Z,20.12
2019-06-20T02:51:43.837Z,19.97
2019-06-20T02:52:24.337Z,20.05
2019-06-20T02:53:04.789Z,19.89
2019-06-20T02:53:45.277Z,19.98
2019-06-20T02:54:27.284Z,19.9
2019-06-20T02:55:07.717Z,19.92
2019-06-20T02:55:48.208Z,19.92
2019-06-20T02:57:09.161Z,19.89
2019-06-20T02:57:49.635Z,19.85
2019-06-20T02:58:30.068Z,19.9
2019-06-20T02:59:10.527Z,19.71
2019-06-20T02:59:50.977Z,19.79
2019-06-20T03:00:31.479Z,19.79
2019-06-20T03:01:11.912Z,19.8
2019-06-20T03:01:52.444Z,19.79
2019-06-20T03:02:32.934Z,19.79
2019-06-20T03:03:13.379Z,19.9
2019-06-20T03:03:53.833Z,19.89
2019-06-20T03:04:34.399Z,19.89
2019-06-20T03:05:14.799Z,19.9
2019-06-20T03:05:55.286Z,19.94
2019-06-20T03:06:35.769Z,20
2019-06-20T03:07:16.211Z,20.02
2019-06-20T03:07:56.694Z,19.95
2019-06-20T03:08:37.165Z,19.97
2019-06-20T03:09:23.250Z,20.05
2019-06-20T03:10:05.883Z,20.08
2019-06-20T03:10:46.317Z,20.04
2019-06-20T03:11:26.843Z,20.08
2019-06-20T03:12:08.651Z,20.1
2019-06-20T03:12:49.033Z,20.04
2019-06-20T03:13:29.502Z,20.1
2019-06-20T03:14:09.969Z,20.1
2019-06-20T03:14:50.380Z,20.1
2019-06-20T03:15:30.835Z,20.12
2019-06-20T03:16:11.390Z,20.1
2019-06-20T03:16:54.629Z,20.16
2019-06-20T03:17:35.125Z,20.1
2019-06-20T03:18:15.562Z,20.2
2019-06-20T03:18:56.036Z,20.17
2019-06-20T03:19:36.525Z,20.25
2019-06-20T03:20:16.996Z,20.33
2019-06-20T03:20:57.489Z,20.3
2019-06-20T03:21:37.970Z,20.22
2019-06-20T03:22:18.452Z,20.2
2019-06-20T03:22:58.973Z,20.16
2019-06-20T03:23:39.396Z,20.1
2019-06-20T03:24:19.847Z,20.1
2019-06-20T03:25:00.333Z,20.15
2019-06-20T03:25:41.433Z,20.05
2019-06-20T03:26:22.041Z,20.13
2019-06-20T03:27:02.481Z,20.04
2019-06-20T03:27:42.926Z,20.02
2019-06-20T03:28:23.384Z,20.02
2019-06-20T03:29:03.877Z,20.1
2019-06-20T03:29:44.351Z,20.05
2019-06-20T03:30:24.811Z,20.04
2019-06-20T03:31:05.303Z,20.01
2019-06-20T03:31:45.757Z,20.02
2019-06-20T03:32:26.239Z,20.1
2019-06-20T03:33:06.723Z,20.1
2019-06-20T03:33:47.199Z,20.08
2019-06-20T03:34:27.699Z,20.07
2019-06-20T03:35:08.156Z,20.05
2019-06-20T03:35:48.660Z,20.05
2019-06-20T03:36:29.173Z,20.17
2019-06-20T03:37:09.625Z,20.05
2019-06-20T03:37:50.342Z,20.1
2019-06-20T03:38:30.494Z,20.15
2019-06-20T03:39:10.972Z,20.16
2019-06-20T03:39:51.441Z,20.08
2019-06-20T03:40:31.938Z,20.1
2019-06-20T03:41:12.690Z,20.07
2019-06-20T03:41:53.178Z,20.1
2019-06-20T03:42:33.707Z,20.08
2019-06-20T03:43:14.124Z,20.12
2019-06-20T03:43:54.583Z,20.12
2019-06-20T03:44:35.095Z,20.16
2019-06-20T03:45:15.536Z,20.15
2019-06-20T03:45:56.049Z,20.08
2019-06-20T03:46:36.490Z,20.08
2019-06-20T03:47:16.932Z,20.07
2019-06-20T03:47:57.443Z,20.1
2019-06-20T03:48:37.977Z,20.07
2019-06-20T03:49:18.451Z,20.01
2019-06-20T03:49:58.960Z,20.04
2019-06-20T03:50:39.437Z,20.08
2019-06-20T03:51:19.908Z,20.07
2019-06-20T03:52:00.438Z,20.01
2019-06-20T03:52:40.957Z,20.07
2019-06-20T03:53:21.403Z,20.16
2019-06-20T03:54:01.875Z,20.08
2019-06-20T03:54:42.356Z,20.12
2019-06-20T03:55:22.864Z,20.05
2019-06-20T03:56:03.293Z,20.04
2019-06-20T03:56:43.824Z,20.05
2019-06-20T03:57:24.767Z,20.08
2019-06-20T03:58:05.601Z,20.13
2019-06-20T03:58:46.074Z,20.1
2019-06-20T03:59:26.542Z,20.13
2019-06-20T04:00:07.024Z,20.12
2019-06-20T04:00:47.500Z,20.15
2019-06-20T04:01:28.013Z,20.23
2019-06-20T04:02:08.447Z,20.16
2019-06-20T04:02:48.918Z,20.16
2019-06-20T04:03:29.383Z,20.22
2019-06-20T04:04:09.860Z,20.12
2019-06-20T04:04:50.384Z,20.17
2019-06-20T04:05:30.819Z,20.17
2019-06-20T04:06:11.283Z,20.1
2019-06-20T04:06:51.768Z,20.15
2019-06-20T04:07:32.229Z,20.25
2019-06-20T04:08:12.759Z,20.19
2019-06-20T04:08:53.206Z,20.13
2019-06-20T04:09:33.671Z,20.19
2019-06-20T04:10:14.134Z,20.17
2019-06-20T04:10:55.494Z,20.2
2019-06-20T04:11:35.769Z,20.22
2019-06-20T04:12:16.250Z,20.22
2019-06-20T04:12:56.767Z,20.3
2019-06-20T04:13:37.243Z,20.33
2019-06-20T04:14:17.695Z,20.3
2019-06-20T04:14:58.167Z,20.25
2019-06-20T04:15:38.657Z,20.26
2019-06-20T04:16:19.202Z,20.31
2019-06-20T04:16:59.662Z,20.31
2019-06-20T04:17:40.157Z,20.31
2019-06-20T04:18:20.631Z,20.31
2019-06-20T04:19:41.577Z,20.3
2019-06-20T04:20:22.046Z,20.31
2019-06-20T04:21:02.527Z,20.33
2019-06-20T04:21:43.040Z,20.31
2019-06-20T04:22:23.584Z,20.31
2019-06-20T04:23:03.983Z,20.31
2019-06-20T04:23:44.464Z,20.27
2019-06-20T04:24:27.834Z,20.3
2019-06-20T04:25:05.446Z,20.26
2019-06-20T04:25:45.942Z,20.31
2019-06-20T04:26:26.427Z,20.35
2019-06-20T04:27:06.887Z,20.31
2019-06-20T04:27:47.345Z,20.3
2019-06-20T05:15:23.473Z,19.95
2019-06-20T05:16:03.965Z,19.89
2019-06-20T05:16:44.418Z,19.89
2019-06-20T05:17:24.977Z,19.87
2019-06-20T05:18:06.332Z,19.89
2019-06-20T05:18:47.234Z,19.94
2019-06-20T05:19:28.156Z,20.02
2019-06-20T05:20:08.513Z,20.02
2019-06-20T05:20:51.026Z,20.05
2019-06-20T05:21:31.505Z,20.08
2019-06-20T05:22:12.010Z,20.05
2019-06-20T05:22:52.470Z,20.17
2019-06-20T05:23:32.900Z,20.1
2019-06-20T05:24:17.195Z,20.13
2019-06-20T05:24:57.619Z,20.22
2019-06-20T05:25:40.089Z,20.3
2019-06-20T05:26:20.510Z,20.33
2019-06-20T05:27:00.982Z,20.31
2019-06-20T05:27:41.468Z,20.4
2019-06-20T05:28:21.918Z,20.37
2019-06-20T05:29:05.363Z,20.46
2019-06-20T05:29:44.911Z,20.42
2019-06-20T05:30:25.373Z,20.48
2019-06-20T05:31:05.854Z,20.48
2019-06-20T05:31:46.271Z,20.58
2019-06-20T05:32:26.794Z,20.63
2019-06-20T05:33:07.316Z,20.68
2019-06-20T05:33:47.783Z,20.64
2019-06-20T05:34:28.278Z,20.76
2019-06-20T05:35:08.974Z,20.63
2019-06-20T05:35:49.271Z,20.78
2019-06-20T05:36:29.719Z,20.73
2019-06-20T05:37:10.216Z,20.81
2019-06-20T05:37:50.655Z,20.75
2019-06-20T05:38:31.129Z,20.88
2019-06-20T05:39:11.595Z,20.91
2019-06-20T05:39:52.105Z,21.03
2019-06-20T05:40:36.238Z,21.01
2019-06-20T05:41:13.047Z,21.01
2019-06-20T05:41:53.524Z,21.05
2019-06-20T05:42:33.988Z,21.05
2019-06-20T05:43:14.450Z,21.06
2019-06-20T05:43:54.924Z,21.19
2019-06-20T05:44:35.410Z,21.15
2019-06-20T05:45:15.893Z,21.22
2019-06-20T05:46:08.624Z,21.26
2019-06-20T05:46:36.880Z,21.27
2019-06-20T05:47:17.374Z,21.26
2019-06-20T05:47:57.835Z,21.33
2019-06-20T05:48:38.367Z,21.34
2019-06-20T05:49:19.070Z,21.34
2019-06-20T05:49:59.253Z,21.33
2019-06-20T05:50:39.803Z,21.37
2019-06-20T05:51:20.217Z,21.34
2019-06-20T05:52:00.671Z,21.37
2019-06-20T05:52:41.151Z,21.46
2019-06-20T05:53:21.619Z,21.49
2019-06-20T05:54:42.521Z,21.49
2019-06-20T05:55:23.018Z,21.51
2019-06-20T05:56:03.444Z,21.52
2019-06-20T05:56:44.685Z,21.52
2019-06-20T05:57:24.447Z,21.56
2019-06-20T05:58:04.910Z,21.48
2019-06-20T05:58:45.991Z,21.59
2019-06-20T05:59:31.904Z,21.52
2019-06-20T06:00:12.366Z,21.55
2019-06-20T06:00:53.684Z,21.58
2019-06-20T06:01:33.254Z,21.49
2019-06-20T06:02:13.740Z,21.58
2019-06-20T06:02:54.218Z,21.55
2019-06-20T06:03:34.682Z,21.48
2019-06-20T06:04:15.167Z,21.53
2019-06-20T06:04:55.603Z,21.48
2019-06-20T06:05:37.047Z,21.46
2019-06-20T06:06:16.609Z,21.51
2019-06-20T06:06:57.142Z,21.48
2019-06-20T06:07:39.176Z,21.43
2019-06-20T06:08:18.178Z,21.4
2019-06-20T06:09:01.356Z,21.38
2019-06-20T06:09:41.826Z,21.42
2019-06-20T06:10:23.173Z,21.4
2019-06-20T06:11:03.579Z,21.42
2019-06-20T06:11:44.131Z,21.46
2019-06-20T06:12:27.489Z,21.42
2019-06-20T06:13:09.982Z,21.48
2019-06-20T06:13:51.435Z,21.46
2019-06-20T06:15:12.391Z,21.52
2019-06-20T06:15:52.838Z,21.58
2019-06-20T06:16:33.342Z,21.48
2019-06-20T06:17:13.761Z,21.58
2019-06-20T06:17:54.240Z,21.63
2019-06-20T06:18:34.673Z,21.53
2019-06-20T06:23:51.492Z,21.51
2019-06-20T06:25:25.224Z,21.52
2019-06-20T06:26:04.802Z,21.55
2019-06-20T06:26:45.247Z,21.53
2019-06-20T06:27:25.737Z,21.55
2019-06-20T06:28:06.244Z,21.52
2019-06-20T06:28:46.711Z,21.51
2019-06-20T06:29:27.192Z,21.59
2019-06-20T06:30:07.709Z,21.55
2019-06-20T06:30:48.194Z,21.46
2019-06-20T06:31:29.772Z,21.55
2019-06-20T06:32:13.937Z,21.51
2019-06-20T06:33:34.877Z,21.61
2019-06-20T06:34:15.348Z,21.61
2019-06-20T06:34:55.824Z,21.63
2019-06-20T06:35:36.306Z,21.59
2019-06-20T06:36:16.774Z,21.7
2019-06-20T06:36:57.260Z,21.66
2019-06-20T06:37:37.709Z,21.71
2019-06-20T06:38:21.732Z,21.79
2019-06-20T06:38:58.718Z,21.79
2019-06-20T06:39:39.130Z,21.89
2019-06-20T06:40:19.608Z,21.82
2019-06-20T06:41:00.068Z,21.9
2019-06-20T06:41:40.570Z,22.01
2019-06-20T06:42:21.034Z,21.96
2019-06-20T06:43:01.517Z,21.98
2019-06-20T06:43:42.336Z,22.02
2019-06-20T06:44:22.666Z,22.04
2019-06-20T06:45:03.148Z,22.2
2019-06-20T06:45:43.614Z,22.31
2019-06-20T06:46:24.083Z,22.42
2019-06-20T06:47:04.574Z,22.59
2019-06-20T06:47:45.058Z,22.78
2019-06-20T06:48:26.178Z,22.89
2019-06-20T06:49:13.316Z,22.93
2019-06-20T06:52:19.064Z,23.57
2019-06-20T06:53:06.137Z,23.69
2019-06-20T06:53:45.749Z,23.78
2019-06-20T06:54:26.232Z,23.82
2019-06-20T06:55:07.353Z,24
2019-06-20T06:55:47.716Z,24.14
2019-06-20T06:56:28.200Z,24.29
2019-06-20T06:57:08.657Z,24.42
2019-06-20T06:57:49.124Z,24.45
2019-06-20T06:58:29.626Z,24.41
2019-06-20T06:59:10.103Z,24.45
2019-06-20T06:59:50.563Z,24.41
2019-06-20T07:00:31.043Z,24.3
2019-06-20T07:01:11.495Z,24.19
2019-06-20T07:01:52.065Z,24.15
2019-06-20T07:02:32.495Z,24.09
2019-06-20T07:03:12.977Z,23.89
2019-06-20T07:04:33.947Z,23.69
2019-06-20T07:05:14.424Z,23.75
2019-06-20T07:05:54.885Z,23.86
2019-06-20T07:06:35.362Z,24
2019-06-20T07:07:15.822Z,24.15
2019-06-20T07:07:56.308Z,24.3
2019-06-20T07:08:36.780Z,24.51
2019-06-20T07:09:17.315Z,24.66
2019-06-20T07:09:57.749Z,24.67
2019-06-20T07:10:38.227Z,24.79
2019-06-20T07:11:18.731Z,24.86
2019-06-20T07:11:59.212Z,24.75
2019-06-20T07:12:39.676Z,24.82
2019-06-20T07:13:20.169Z,24.89
2019-06-20T07:14:00.980Z,24.98
2019-06-20T07:14:43.404Z,25.02
2019-06-20T07:15:25.688Z,25.08
2019-06-20T07:16:06.208Z,25.31
2019-06-20T07:16:59.390Z,25.36
2019-06-20T07:17:27.120Z,25.59
2019-06-20T07:18:07.644Z,25.71
2019-06-20T07:18:49.704Z,25.81
2019-06-20T07:19:30.184Z,26.01
2019-06-20T07:20:10.839Z,26.23
2019-06-20T07:20:51.349Z,26.21
2019-06-20T07:21:32.028Z,26.31
2019-06-20T07:22:14.268Z,26.36
2019-06-20T07:22:57.551Z,26.32
2019-06-20T07:23:38.074Z,26.17
2019-06-20T07:24:18.573Z,26.08
2019-06-20T07:24:59.028Z,25.83
2019-06-20T07:25:41.989Z,25.69
2019-06-20T07:26:23.647Z,25.61
2019-06-20T07:27:04.421Z,25.53
2019-06-20T07:27:46.813Z,25.44
2019-06-20T07:28:27.318Z,25.44
2019-06-20T07:29:09.526Z,25.48
2019-06-20T07:29:50.269Z,25.48
2019-06-20T07:30:31.732Z,25.56
2019-06-20T07:31:12.275Z,25.57
2019-06-20T07:31:55.420Z,25.53
2019-06-20T07:32:35.202Z,25.48
2019-06-20T07:33:15.691Z,25.42
2019-06-20T07:33:56.163Z,25.44
2019-06-20T07:34:36.650Z,25.48
2019-06-20T07:35:18.404Z,25.64
2019-06-20T07:35:58.724Z,25.61
2019-06-20T07:36:39.319Z,25.63
2019-06-20T07:37:21.152Z,25.64
2019-06-20T07:38:01.623Z,25.71
2019-06-20T07:38:42.103Z,25.66
2019-06-20T07:39:22.586Z,25.72
2019-06-20T07:40:03.038Z,25.61
2019-06-20T07:40:45.566Z,25.64
2019-06-20T07:41:26.619Z,25.61
2019-06-20T07:46:01.381Z,25.91
2019-06-20T07:46:29.773Z,25.98
2019-06-20T07:47:17.797Z,26.12
2019-06-20T07:47:57.061Z,26.12
2019-06-20T07:48:37.403Z,26.28
2019-06-20T07:49:17.873Z,26.31
2019-06-20T07:49:58.559Z,26.49
2019-06-20T07:50:40.680Z,26.47
2019-06-20T07:51:22.049Z,26.49
2019-06-20T07:53:01.198Z,26.6
2019-06-20T07:53:28.288Z,26.6
2019-06-20T07:54:09.628Z,26.57
2019-06-20T07:54:51.775Z,26.64
2019-06-20T07:55:32.289Z,26.69
2019-06-20T07:56:15.037Z,26.78
2019-06-20T07:56:55.499Z,26.86
2019-06-20T07:57:35.951Z,26.93
2019-06-20T07:58:16.553Z,26.81
2019-06-20T07:59:03.931Z,26.83
2019-06-20T07:59:44.412Z,26.88
2019-06-20T08:00:24.857Z,27.12
2019-06-20T08:01:05.440Z,27.08
2019-06-20T08:01:45.932Z,27.13
2019-06-20T08:03:06.867Z,27.12
2019-06-20T08:03:47.317Z,27.25
2019-06-20T08:04:28.100Z,27.31
2019-06-20T08:05:08.308Z,27.31
2019-06-20T08:05:48.764Z,27.16
2019-06-20T08:06:41.062Z,27.24
2019-06-20T08:07:23.455Z,27.24
2019-06-20T08:08:04.932Z,27.27
2019-06-20T08:08:45.410Z,27.34
2019-06-20T08:09:43.819Z,27.2
2019-06-20T08:10:12.391Z,27.28
2019-06-20T08:10:54.317Z,27.25
2019-06-20T08:11:34.785Z,27.21
2019-06-20T08:12:15.266Z,27.05
2019-06-20T08:12:55.747Z,27.05
2019-06-20T08:13:37.244Z,27.05
2019-06-20T08:14:20.469Z,26.94
2019-06-20T08:15:14.293Z,26.88
2019-06-20T08:16:24.339Z,26.75
2019-06-20T08:17:09.199Z,26.81
2019-06-20T08:17:49.667Z,26.83
2019-06-20T08:18:30.146Z,26.76
2019-06-20T08:19:10.646Z,26.81
2019-06-20T08:19:51.126Z,26.78
2019-06-20T08:20:31.606Z,26.96
2019-06-20T08:21:12.079Z,26.87
2019-06-20T08:21:52.591Z,26.97
2019-06-20T08:22:33.003Z,27.09
2019-06-20T08:23:55.636Z,27.13
2019-06-20T08:24:36.111Z,27.09
2019-06-20T08:25:16.548Z,27.13
2019-06-20T08:25:57.431Z,27.05
2019-06-20T08:26:37.585Z,27.05
2019-06-20T08:27:18.385Z,26.96
2019-06-20T08:27:59.367Z,26.94
2019-06-20T08:28:38.989Z,26.87
2019-06-20T08:29:21.254Z,26.91
2019-06-20T08:30:00.975Z,26.79
2019-06-20T08:30:40.842Z,26.84
2019-06-20T08:31:22.038Z,26.66
2019-06-20T08:32:02.748Z,26.64
2019-06-20T08:32:44.874Z,26.59
2019-06-20T08:33:25.415Z,26.61
2019-06-20T08:34:06.733Z,26.61
2019-06-20T08:34:47.187Z,26.49
2019-06-20T08:35:27.576Z,26.29
2019-06-20T08:36:08.298Z,26.24
2019-06-20T08:36:48.752Z,26.21
2019-06-20T08:37:33.619Z,26.35
2019-06-20T08:38:14.089Z,26.27
2019-06-20T08:38:56.912Z,26.2
2019-06-20T08:39:35.241Z,26.23
2019-06-20T08:40:15.736Z,26.21
2019-06-20T08:40:56.958Z,26.19
2019-06-20T08:41:36.731Z,25.96
2019-06-20T08:42:17.182Z,25.75
2019-06-20T08:42:58.790Z,25.49
2019-06-20T08:43:39.338Z,25.39
2019-06-20T08:44:21.538Z,25.35
2019-06-20T08:45:01.982Z,25.35
2019-06-20T08:45:42.484Z,25.36
2019-06-20T08:46:23.907Z,25.23
2019-06-20T08:47:05.826Z,25.17
2019-06-20T08:47:44.887Z,25.17
2019-06-20T08:48:25.429Z,25.08
2019-06-20T08:49:05.890Z,25.05
2019-06-20T08:49:46.313Z,25.08
2019-06-20T08:50:26.931Z,25.26
2019-06-20T08:51:07.332Z,25.38
2019-06-20T08:51:47.964Z,25.45
2019-06-20T08:52:28.437Z,25.42
2019-06-20T08:53:09.018Z,25.38
2019-06-20T08:53:49.373Z,25.36
2019-06-20T08:56:03.186Z,25.39
2019-06-20T08:56:42.888Z,25.48
2019-06-20T08:57:23.477Z,25.59
2019-06-20T08:58:05.421Z,25.61
2019-06-20T08:58:44.256Z,25.67
2019-06-20T08:59:24.990Z,25.81
2019-06-20T09:00:45.759Z,25.96
2019-06-20T09:01:26.537Z,26.09
2019-06-20T09:02:07.003Z,26.21
2019-06-20T09:02:47.520Z,26.21
2019-06-20T09:03:27.935Z,26.31
2019-06-20T09:04:08.455Z,26.38
2019-06-20T09:04:48.910Z,26.46
2019-06-20T09:05:30.347Z,26.47
2019-06-20T09:06:10.060Z,26.34
2019-06-20T09:06:50.645Z,26.42
2019-06-20T09:07:34.870Z,26.5
2019-06-20T09:08:17.822Z,26.5
2019-06-20T09:09:02.413Z,26.38
2019-06-20T09:09:42.404Z,26.35
2019-06-20T09:10:23.642Z,26.35
2019-06-20T09:11:04.141Z,26.44
2019-06-20T09:11:44.602Z,26.57
2019-06-20T09:12:25.448Z,26.59
2019-06-20T09:13:06.581Z,26.72
2019-06-20T09:13:47.106Z,26.81
2019-06-20T09:14:27.548Z,26.81
2019-06-20T09:15:08.387Z,26.86
2019-06-20T09:15:48.840Z,26.98
2019-06-20T09:16:29.555Z,26.96
2019-06-20T09:17:10.042Z,27.12
2019-06-20T09:17:52.912Z,27.13
2019-06-20T09:18:31.106Z,27.16
2019-06-20T09:19:11.647Z,27.25
2019-06-20T09:19:54.404Z,27.27
2019-06-20T09:20:34.301Z,27.34
2019-06-20T09:21:14.678Z,27.33
2019-06-20T09:21:55.731Z,27.23
2019-06-20T09:22:35.785Z,27.24
2019-06-20T09:23:16.229Z,27.34
2019-06-20T09:23:57.762Z,27.27
2019-06-20T09:24:37.195Z,27.34
2019-06-20T09:25:18.402Z,27.35
2019-06-20T09:26:01.880Z,27.39
2019-06-20T09:26:43.755Z,27.53
2019-06-20T09:27:24.200Z,27.62
2019-06-20T09:28:04.734Z,27.83
2019-06-20T09:28:45.186Z,27.99
2019-06-20T09:29:29.090Z,28.17
2019-06-20T09:30:06.127Z,28.27
2019-06-20T09:30:46.592Z,28.36
2019-06-20T09:31:27.085Z,28.46
2019-06-20T09:32:08.740Z,28.7
2019-06-20T09:32:53.846Z,28.8
2019-06-20T09:33:36.862Z,28.82
2019-06-20T09:34:17.586Z,28.85
2019-06-20T09:34:58.627Z,28.69
2019-06-20T09:35:38.487Z,28.77
2019-06-20T09:36:18.927Z,28.67
2019-06-20T09:37:04.003Z,28.69
2019-06-20T09:37:43.089Z,28.79
2019-06-20T09:38:23.481Z,28.79
2019-06-20T09:39:06.004Z,28.79
2019-06-20T09:39:47.456Z,28.77
2019-06-20T09:40:27.646Z,28.73
2019-06-20T09:41:08.111Z,28.76
2019-06-20T09:41:48.601Z,28.77
2019-06-20T09:42:29.212Z,28.8
2019-06-20T09:43:51.418Z,28.7
2019-06-20T09:44:33.507Z,28.74
2019-06-20T09:45:15.385Z,28.69
2019-06-20T09:45:56.119Z,28.7
2019-06-20T09:46:36.667Z,28.77
2019-06-20T09:47:17.080Z,28.72
2019-06-20T09:47:58.232Z,28.74
2019-06-20T09:48:38.031Z,28.74
2019-06-20T09:49:18.525Z,28.67
2019-06-20T09:49:59.154Z,28.61
2019-06-20T09:50:39.732Z,28.7
2019-06-20T09:51:20.112Z,28.7
2019-06-20T09:52:00.628Z,28.76
2019-06-20T09:52:41.112Z,28.87
2019-06-20T09:54:02.136Z,28.82
2019-06-20T09:54:42.661Z,28.94
2019-06-20T09:55:23.181Z,28.94
2019-06-20T09:56:03.702Z,29.03
2019-06-20T09:56:47.050Z,29.08
2019-06-20T09:57:24.633Z,29.11
2019-06-20T09:58:05.127Z,29.23
2019-06-20T09:58:47.979Z,29.32
2019-06-20T09:59:28.081Z,29.27
2019-06-20T10:00:10.515Z,29.39
2019-06-20T10:00:49.248Z,29.42
2019-06-20T10:01:31.827Z,29.44
2019-06-20T10:02:12.796Z,29.49
2019-06-20T10:02:56.193Z,29.51
2019-06-20T10:03:35.912Z,29.44
2019-06-20T10:09:00.455Z,29.21
2019-06-20T10:10:32.539Z,28.94
2019-06-20T10:11:15.010Z,28.94
2019-06-20T10:11:56.099Z,28.8
2019-06-20T10:12:36.179Z,28.88
2019-06-20T10:13:17.483Z,28.73
2019-06-20T10:13:58.514Z,28.94
2019-06-20T10:14:38.384Z,28.73
2019-06-20T10:15:19.710Z,28.74
2019-06-20T10:16:45.514Z,28.76
2019-06-20T10:17:21.656Z,28.74
2019-06-20T10:18:02.191Z,28.6
2019-06-20T10:18:42.875Z,28.58
2019-06-20T10:19:23.363Z,28.52
2019-06-20T10:20:03.788Z,28.5